Time;durP1;ratioP1;P1;durP2;ratioP2;P2;SDS_P1;SDS_P2;PMS_P1;PMS_P2;Temp;Humidity;BMP_temperature;BMP_pressure;BME280_temperature;BME280_humidity;BME280_pressure;Samples;Min_cycle;Max_cycle;Signal;HPM_P1;HPM_P2
2023/05/18 00:01:39;;;;;;;10.00;8.77;;;7.60;99.90;;;;;;5031156;28;20270;-65
2023/05/18 00:04:07;;;;;;;9.93;9.13;;;7.60;99.90;;;;;;5032617;28;20176;-65
2023/05/18 00:06:32;;;;;;;10.10;8.83;;;7.60;99.90;;;;;;5032183;28;20218;-65
2023/05/18 00:08:58;;;;;;;9.23;8.40;;;7.50;99.90;;;;;;5032026;28;20199;-65
2023/05/18 00:11:23;;;;;;;9.13;7.87;;;7.50;99.90;;;;;;5032168;28;20309;-65
2023/05/18 00:13:49;;;;;;;8.80;8.13;;;7.50;99.90;;;;;;5032393;28;20193;-65
2023/05/18 00:16:15;;;;;;;12.57;8.37;;;7.40;99.90;;;;;;5032297;28;20179;-65
2023/05/18 00:18:41;;;;;;;8.60;7.90;;;7.40;99.90;;;;;;5031006;28;20179;-65
2023/05/18 00:21:07;;;;;;;9.40;7.37;;;7.40;99.90;;;;;;5032038;28;20241;-65
2023/05/18 00:23:33;;;;;;;10.07;7.10;;;7.40;99.90;;;;;;5032031;28;20633;-65
2023/05/18 00:26:00;;;;;;;9.07;8.17;;;7.40;99.90;;;;;;5032108;28;20199;-65
2023/05/18 00:28:26;;;;;;;8.03;7.23;;;7.30;99.90;;;;;;5032095;28;20199;-65
2023/05/18 00:30:55;;;;;;;8.20;7.20;;;7.30;99.90;;;;;;5031831;28;20231;-65
2023/05/18 00:33:21;;;;;;;19.27;7.93;;;7.20;99.90;;;;;;5031966;28;20270;-65
2023/05/18 00:35:47;;;;;;;13.87;7.67;;;7.20;99.90;;;;;;5032153;28;20743;-65
2023/05/18 00:38:14;;;;;;;8.20;7.50;;;7.20;99.90;;;;;;5031180;28;20298;-65
2023/05/18 00:40:40;;;;;;;7.03;6.53;;;7.20;99.90;;;;;;5031665;28;20191;-65
2023/05/18 00:43:06;;;;;;;12.93;7.60;;;7.10;99.90;;;;;;5031176;28;20445;-65
2023/05/18 00:45:32;;;;;;;9.33;6.80;;;7.10;99.90;;;;;;5031734;28;20226;-65
2023/05/18 00:47:57;;;;;;;6.60;6.20;;;7.10;99.90;;;;;;5031593;28;20183;-65
2023/05/18 00:50:23;;;;;;;8.00;7.23;;;7.00;99.90;;;;;;5030913;28;20187;-65
2023/05/18 00:52:50;;;;;;;7.83;6.77;;;7.00;99.90;;;;;;5031588;28;20695;-65
2023/05/18 00:55:16;;;;;;;9.27;7.50;;;7.00;99.90;;;;;;5031549;28;20171;-65
2023/05/18 00:57:43;;;;;;;11.67;7.10;;;7.00;99.90;;;;;;5031686;28;20186;-65
2023/05/18 01:00:12;;;;;;;8.13;7.00;;;6.90;99.90;;;;;;5031300;28;20631;-65
2023/05/18 01:02:41;;;;;;;8.90;7.17;;;6.90;99.90;;;;;;5031135;28;20222;-65
2023/05/18 01:05:11;;;;;;;7.27;6.60;;;6.90;99.90;;;;;;5031572;28;20472;-65
2023/05/18 01:07:41;;;;;;;13.73;7.47;;;6.80;99.90;;;;;;5031142;28;20175;-65
2023/05/18 01:10:07;;;;;;;7.60;7.07;;;6.80;99.90;;;;;;5030902;28;20684;-65
2023/05/18 01:12:58;;;;;;;8.53;7.33;;;6.70;99.90;;;;;;5031358;28;20256;-65
2023/05/18 01:15:36;;;;;;;8.77;7.00;;;6.70;99.90;;;;;;5031651;28;20175;-65
2023/05/18 01:18:30;;;;;;;7.93;7.23;;;6.70;99.90;;;;;;5031129;28;20207;-65
2023/05/18 01:21:18;;;;;;;8.87;7.67;;;6.70;99.90;;;;;;5030732;28;20182;-64
2023/05/18 01:24:14;;;;;;;7.90;7.17;;;6.60;99.90;;;;;;5031128;28;20720;-65
2023/05/18 01:26:44;;;;;;;11.53;8.03;;;6.60;99.90;;;;;;5031142;28;20669;-65
2023/05/18 01:29:12;;;;;;;8.47;7.53;;;6.60;99.90;;;;;;5030886;28;20195;-65
2023/05/18 01:31:38;;;;;;;7.53;6.73;;;6.60;99.90;;;;;;5030835;28;20563;-65
2023/05/18 01:34:05;;;;;;;8.37;7.57;;;6.60;99.90;;;;;;5031096;28;20549;-65
2023/05/18 01:36:30;;;;;;;7.70;6.97;;;6.50;99.90;;;;;;5030844;28;20707;-64
2023/05/18 01:39:00;;;;;;;8.50;7.33;;;6.50;99.90;;;;;;5031204;28;20359;-65
2023/05/18 01:41:28;;;;;;;7.73;7.13;;;6.50;99.90;;;;;;5030475;28;20183;-65
2023/05/18 01:44:08;;;;;;;12.07;7.17;;;6.50;99.90;;;;;;5031342;28;20175;-65
2023/05/18 01:46:58;;;;;;;9.67;7.60;;;6.40;99.90;;;;;;5030916;28;20241;-65
2023/05/18 01:49:48;;;;;;;8.50;7.67;;;6.40;99.90;;;;;;5031771;28;20219;-65
2023/05/18 01:52:31;;;;;;;8.20;7.50;;;6.30;99.90;;;;;;5034793;28;20179;-64
2023/05/18 01:55:02;;;;;;;9.83;7.97;;;6.30;99.90;;;;;;5034901;28;20175;-65
2023/05/18 01:57:30;;;;;;;8.60;7.90;;;6.20;99.90;;;;;;5027843;28;20202;-65
2023/05/18 01:59:58;;;;;;;13.00;8.43;;;6.20;99.90;;;;;;5034426;28;20595;-64
2023/05/18 02:02:25;;;;;;;8.60;7.77;;;6.20;99.90;;;;;;5034536;28;20184;-65
2023/05/18 02:04:50;;;;;;;8.77;8.00;;;6.10;99.90;;;;;;5034640;28;20701;-65
2023/05/18 02:07:16;;;;;;;10.67;7.67;;;6.10;99.90;;;;;;5034774;28;20203;-65
2023/05/18 02:09:43;;;;;;;9.87;7.67;;;6.10;99.90;;;;;;5034871;28;20294;-64
2023/05/18 02:12:09;;;;;;;8.30;7.53;;;6.10;99.90;;;;;;5034681;28;20183;-64
2023/05/18 02:14:35;;;;;;;10.23;7.97;;;6.10;99.90;;;;;;5034494;28;20183;-65
2023/05/18 02:17:00;;;;;;;13.30;8.13;;;6.10;99.90;;;;;;5034574;28;20641;-64
2023/05/18 02:19:26;;;;;;;9.17;8.03;;;6.10;99.90;;;;;;5034032;28;20199;-64
2023/05/18 02:21:51;;;;;;;12.50;8.23;;;6.10;99.90;;;;;;5034710;28;20207;-64
2023/05/18 02:24:17;;;;;;;12.03;7.90;;;6.00;99.90;;;;;;5034008;28;20241;-64
2023/05/18 02:26:43;;;;;;;7.90;7.23;;;6.00;99.90;;;;;;5034653;28;20180;-64
2023/05/18 02:29:10;;;;;;;12.07;8.20;;;6.00;99.90;;;;;;5033897;28;20215;-65
2023/05/18 02:31:37;;;;;;;9.87;8.90;;;5.90;99.90;;;;;;5034269;28;20179;-64
2023/05/18 02:34:03;;;;;;;12.60;8.43;;;5.90;99.90;;;;;;5034030;28;20274;-64
2023/05/18 02:36:35;;;;;;;14.10;7.90;;;5.90;99.90;;;;;;5034211;28;20270;-64
2023/05/18 02:39:03;;;;;;;14.53;8.57;;;5.90;99.90;;;;;;5033925;28;20229;-64
2023/05/18 02:41:29;;;;;;;7.83;7.23;;;5.80;99.90;;;;;;5034524;28;20171;-64
2023/05/18 02:43:55;;;;;;;8.80;8.00;;;5.80;99.90;;;;;;5033953;28;20195;-65
2023/05/18 02:46:21;;;;;;;9.87;7.93;;;5.80;99.90;;;;;;5033995;28;20215;-64
2023/05/18 02:48:46;;;;;;;9.97;7.90;;;5.80;99.90;;;;;;5033748;28;20203;-65
2023/05/18 02:51:12;;;;;;;10.40;8.37;;;5.80;99.90;;;;;;5033733;28;20183;-64
2023/05/18 02:53:38;;;;;;;14.37;8.07;;;5.70;99.90;;;;;;5033776;28;20649;-65
2023/05/18 02:56:04;;;;;;;8.87;8.20;;;5.80;99.90;;;;;;5034224;28;20550;-64
2023/05/18 02:58:30;;;;;;;10.80;8.37;;;5.70;99.90;;;;;;5033490;28;20198;-64
2023/05/18 03:00:56;;;;;;;13.00;9.27;;;5.70;99.90;;;;;;5032624;28;20179;-65
2023/05/18 03:03:24;;;;;;;12.87;8.70;;;5.70;99.90;;;;;;5033692;28;20547;-65
2023/05/18 03:05:53;;;;;;;9.33;8.53;;;5.70;99.90;;;;;;5033736;28;20603;-64
2023/05/18 03:08:21;;;;;;;13.37;8.97;;;5.70;99.90;;;;;;5033071;28;20215;-65
2023/05/18 03:10:47;;;;;;;11.83;8.70;;;5.60;99.90;;;;;;5033249;28;20219;-64
2023/05/18 03:13:13;;;;;;;11.47;10.27;;;5.60;99.90;;;;;;5033439;28;20179;-64
2023/05/18 03:15:39;;;;;;;11.93;8.17;;;5.60;99.90;;;;;;5033657;28;20168;-64
2023/05/18 03:18:05;;;;;;;10.23;9.23;;;5.60;99.90;;;;;;5033144;28;20202;-64
2023/05/18 03:20:31;;;;;;;12.07;8.80;;;5.60;99.90;;;;;;5032317;28;20203;-64
2023/05/18 03:22:57;;;;;;;13.40;8.20;;;5.50;99.90;;;;;;5033274;28;20507;-64
2023/05/18 03:25:24;;;;;;;10.47;8.90;;;5.60;99.90;;;;;;5033645;28;20223;-64
2023/05/18 03:27:51;;;;;;;9.63;8.60;;;5.50;99.90;;;;;;5031957;28;20233;-64
2023/05/18 03:30:18;;;;;;;10.47;9.03;;;5.50;99.90;;;;;;5033167;28;20346;-64
2023/05/18 03:32:46;;;;;;;12.63;8.77;;;5.50;99.90;;;;;;5033042;28;20254;-64
2023/05/18 03:35:11;;;;;;;12.57;8.47;;;5.50;99.90;;;;;;5033168;28;20604;-64
2023/05/18 03:37:37;;;;;;;8.27;7.47;;;5.50;99.90;;;;;;5033047;28;20255;-65
2023/05/18 03:40:14;;;;;;;9.33;8.53;;;5.40;99.90;;;;;;5032802;28;20199;-64
2023/05/18 03:42:41;;;;;;;9.07;8.23;;;5.40;99.90;;;;;;5032899;28;20211;-64
2023/05/18 03:45:10;;;;;;;14.07;9.20;;;5.40;99.90;;;;;;5032585;28;20237;-64
2023/05/18 03:47:37;;;;;;;10.67;9.37;;;5.40;99.90;;;;;;5013410;28;20176;-64
2023/05/18 03:50:03;;;;;;;9.80;8.60;;;5.40;99.90;;;;;;5012837;28;20286;-65
2023/05/18 03:52:29;;;;;;;11.40;9.17;;;5.50;99.90;;;;;;5031696;28;20180;-64
2023/05/18 03:54:55;;;;;;;9.27;8.53;;;5.50;99.90;;;;;;5032897;28;20180;-64
2023/05/18 03:57:21;;;;;;;10.03;8.70;;;5.50;99.90;;;;;;5032714;28;20644;-64
2023/05/18 03:59:47;;;;;;;10.13;9.13;;;5.50;99.90;;;;;;5032439;28;20203;-64
2023/05/18 04:02:12;;;;;;;11.80;9.93;;;5.60;99.90;;;;;;5032175;28;20187;-64
2023/05/18 04:04:40;;;;;;;13.07;9.97;;;5.70;99.90;;;;;;5012890;28;20212;-64
2023/05/18 04:07:07;;;;;;;14.80;9.47;;;5.60;99.90;;;;;;5026856;28;20712;-64
2023/05/18 04:09:33;;;;;;;15.30;8.93;;;5.70;99.90;;;;;;5032147;28;20207;-64
2023/05/18 04:11:59;;;;;;;12.77;9.87;;;5.70;99.90;;;;;;5032655;28;20167;-64
2023/05/18 04:14:26;;;;;;;12.97;9.63;;;5.80;99.90;;;;;;5032241;28;20181;-63
2023/05/18 04:16:53;;;;;;;10.20;9.30;;;5.90;99.90;;;;;;5032076;28;20168;-64
2023/05/18 04:19:20;;;;;;;13.87;9.43;;;5.90;99.90;;;;;;5030952;28;20191;-64
2023/05/18 04:21:47;;;;;;;10.10;8.83;;;6.00;99.90;;;;;;5032068;28;20725;-64
2023/05/18 04:24:15;;;;;;;13.53;10.70;;;6.10;99.90;;;;;;5031355;28;20175;-64
2023/05/18 04:26:41;;;;;;;14.20;9.23;;;6.20;99.90;;;;;;5031606;28;20241;-64
2023/05/18 04:29:09;;;;;;;15.40;9.87;;;6.30;99.90;;;;;;5031152;28;20195;-64
2023/05/18 04:31:40;;;;;;;13.03;10.03;;;6.30;99.90;;;;;;5031987;28;20267;-63
2023/05/18 04:34:07;;;;;;;22.97;10.00;;;6.40;99.90;;;;;;5031280;28;20164;-63
2023/05/18 04:36:33;;;;;;;12.60;10.00;;;6.50;99.90;;;;;;5031920;28;20176;-63
2023/05/18 04:39:02;;;;;;;14.37;9.70;;;6.50;99.90;;;;;;5031690;28;20191;-64
2023/05/18 04:41:28;;;;;;;11.80;9.57;;;6.60;99.90;;;;;;5031318;28;20599;-64
2023/05/18 04:43:54;;;;;;;11.33;8.80;;;6.70;99.90;;;;;;5031182;28;20186;-64
2023/05/18 04:46:22;;;;;;;12.37;8.70;;;6.70;99.90;;;;;;5031517;28;20211;-64
2023/05/18 04:48:48;;;;;;;12.40;9.00;;;6.80;99.90;;;;;;5031219;28;20179;-64
2023/05/18 04:51:20;;;;;;;12.43;9.53;;;6.90;99.90;;;;;;5029937;28;20657;-64
2023/05/18 04:53:48;;;;;;;9.33;8.53;;;7.00;99.90;;;;;;5031974;28;20171;-64
2023/05/18 04:56:21;;;;;;;14.33;9.00;;;7.00;99.90;;;;;;5031458;28;20185;-64
2023/05/18 04:58:47;;;;;;;13.20;9.43;;;7.10;99.90;;;;;;5032264;28;20657;-64
2023/05/18 05:01:14;;;;;;;13.00;9.97;;;7.20;99.90;;;;;;5030724;28;20520;-64
2023/05/18 05:03:41;;;;;;;18.17;9.97;;;7.30;99.90;;;;;;5031357;28;20182;-64
2023/05/18 05:06:07;;;;;;;12.40;9.80;;;7.50;99.90;;;;;;5030936;28;20239;-64
2023/05/18 05:08:33;;;;;;;10.00;9.00;;;7.60;99.90;;;;;;5031311;28;20182;-64
2023/05/18 05:11:00;;;;;;;9.73;8.93;;;7.70;99.90;;;;;;5030772;28;20172;-64
2023/05/18 05:13:25;;;;;;;12.20;8.47;;;7.70;99.90;;;;;;5031682;28;20633;-64
2023/05/18 05:15:51;;;;;;;10.30;7.97;;;7.80;99.90;;;;;;5030067;28;20178;-64
2023/05/18 05:18:17;;;;;;;12.33;8.40;;;8.00;99.90;;;;;;5030433;28;20649;-64
2023/05/18 05:20:42;;;;;;;9.40;8.47;;;8.10;99.90;;;;;;5030455;28;20204;-65
2023/05/18 05:23:08;;;;;;;12.30;8.23;;;8.30;99.90;;;;;;5031000;28;20180;-64
2023/05/18 05:25:33;;;;;;;10.13;8.37;;;8.50;99.90;;;;;;5030670;28;20257;-64
2023/05/18 05:27:59;;;;;;;9.40;8.43;;;8.60;99.90;;;;;;5031028;28;20215;-64
2023/05/18 05:30:25;;;;;;;9.80;8.33;;;8.70;99.90;;;;;;5030934;28;20609;-65
2023/05/18 05:32:50;;;;;;;10.83;8.37;;;8.80;99.90;;;;;;5031390;28;20190;-64
2023/05/18 05:35:16;;;;;;;8.10;7.50;;;8.80;99.90;;;;;;5030026;28;20183;-64
2023/05/18 05:37:41;;;;;;;11.93;7.47;;;9.00;99.90;;;;;;5031433;28;20183;-65
2023/05/18 05:40:08;;;;;;;8.23;6.93;;;9.30;99.90;;;;;;5030605;28;20658;-64
2023/05/18 05:42:34;;;;;;;9.50;7.03;;;9.60;99.90;;;;;;5031034;28;20182;-64
2023/05/18 05:45:00;;;;;;;7.30;6.67;;;10.10;99.90;;;;;;5029299;28;20199;-64
2023/05/18 05:47:26;;;;;;;7.60;6.40;;;10.50;99.90;;;;;;5031440;28;20168;-64
2023/05/18 05:49:51;;;;;;;6.00;5.50;;;10.80;99.90;;;;;;5030414;28;20187;-64
2023/05/18 05:52:17;;;;;;;8.33;5.73;;;11.10;99.90;;;;;;5029891;28;20180;-65
2023/05/18 05:54:42;;;;;;;5.87;5.30;;;11.40;99.90;;;;;;5029124;28;20270;-65
2023/05/18 05:57:08;;;;;;;7.87;6.50;;;11.80;99.90;;;;;;5029499;28;20179;-65
2023/05/18 05:59:33;;;;;;;7.53;5.30;;;12.20;99.90;;;;;;5030459;28;20238;-65
2023/05/18 06:01:59;;;;;;;5.90;5.20;;;12.50;99.90;;;;;;5028844;28;20176;-65
2023/05/18 06:04:25;;;;;;;8.30;5.30;;;13.00;99.90;;;;;;5030540;28;20183;-65
2023/05/18 06:06:50;;;;;;;9.03;5.33;;;13.20;99.90;;;;;;5029569;28;20233;-65
2023/05/18 06:09:16;;;;;;;5.87;5.37;;;13.70;99.90;;;;;;5030053;28;20382;-65
2023/05/18 06:11:42;;;;;;;7.87;5.50;;;13.90;99.90;;;;;;5030879;28;20172;-65
2023/05/18 06:14:07;;;;;;;5.70;5.17;;;14.40;99.90;;;;;;5029022;28;20619;-65
2023/05/18 06:16:33;;;;;;;6.67;5.63;;;14.70;99.90;;;;;;5030868;28;20178;-65
2023/05/18 06:18:58;;;;;;;5.43;4.93;;;15.00;99.90;;;;;;5029242;28;20207;-65
2023/05/18 06:21:24;;;;;;;10.10;5.77;;;15.00;99.90;;;;;;5028889;28;20309;-65
2023/05/18 06:23:50;;;;;;;6.43;5.77;;;15.20;99.90;;;;;;5030583;28;20176;-65
2023/05/18 06:26:15;;;;;;;13.20;5.37;;;15.50;99.90;;;;;;5029214;28;20264;-64
2023/05/18 06:28:41;;;;;;;7.53;6.03;;;15.90;99.90;;;;;;5030169;28;20179;-65
2023/05/18 06:31:07;;;;;;;5.57;5.07;;;16.40;99.90;;;;;;5030418;28;20207;-65
2023/05/18 06:33:33;;;;;;;6.63;5.13;;;16.40;99.90;;;;;;5030522;28;20217;-65
2023/05/18 06:35:59;;;;;;;7.07;4.60;;;16.80;99.90;;;;;;5030605;28;20187;-65
2023/05/18 06:38:24;;;;;;;6.13;5.30;;;17.00;99.90;;;;;;5033869;28;20171;-65
2023/05/18 06:40:50;;;;;;;6.80;4.47;;;17.20;99.90;;;;;;5033636;28;20219;-65
2023/05/18 06:43:15;;;;;;;5.82;5.22;;;17.50;99.90;;;;;;5033655;28;20540;-65
2023/05/18 06:45:41;;;;;;;7.90;5.45;;;17.90;99.90;;;;;;5034149;28;20205;-65
2023/05/18 06:48:07;;;;;;;7.05;4.28;;;18.00;99.90;;;;;;5033960;28;20249;-65
2023/05/18 06:50:32;;;;;;;4.78;4.20;;;18.20;99.90;;;;;;5031709;28;20680;-65
2023/05/18 06:52:58;;;;;;;7.68;5.75;;;18.60;99.90;;;;;;5033738;28;20180;-65
2023/05/18 06:55:23;;;;;;;8.80;5.40;;;18.60;99.90;;;;;;5033747;28;20174;-65
2023/05/18 06:57:50;;;;;;;6.47;5.50;;;18.60;99.90;;;;;;5033847;28;20512;-65
2023/05/18 07:00:16;;;;;;;5.22;4.68;;;18.90;99.90;;;;;;5033447;28;20513;-65
2023/05/18 07:02:43;;;;;;;5.78;4.72;;;18.80;99.90;;;;;;5033570;28;20517;-65
2023/05/18 07:05:08;;;;;;;11.57;5.88;;;18.70;99.90;;;;;;5033470;28;20242;-65
2023/05/18 07:07:36;;;;;;;5.80;5.05;;;18.50;99.90;;;;;;5033555;28;20210;-65
2023/05/18 07:10:03;;;;;;;5.78;4.50;;;18.50;99.90;;;;;;5033146;28;20199;-65
2023/05/18 07:12:29;;;;;;;8.68;4.75;;;18.60;99.90;;;;;;5033535;28;20553;-65
2023/05/18 07:14:54;;;;;;;8.55;4.78;;;19.00;99.90;;;;;;5031458;28;20207;-65
2023/05/18 07:17:21;;;;;;;6.55;5.03;;;19.40;99.90;;;;;;5033228;28;20427;-66
2023/05/18 07:19:46;;;;;;;6.35;4.80;;;19.50;99.90;;;;;;5033435;28;20191;-65
2023/05/18 07:22:12;;;;;;;4.47;4.07;;;19.90;99.90;;;;;;5033120;28;20715;-65
2023/05/18 07:24:37;;;;;;;5.85;4.28;;;20.40;99.90;;;;;;5033227;28;20182;-65
2023/05/18 07:27:03;;;;;;;5.30;3.72;;;20.60;99.90;;;;;;5032935;28;20185;-65
2023/05/18 07:29:29;;;;;;;5.15;4.00;;;20.60;99.90;;;;;;5033188;28;20546;-65
2023/05/18 07:31:55;;;;;;;5.32;3.65;;;20.50;99.90;;;;;;5032898;28;20599;-65
2023/05/18 07:34:22;;;;;;;5.30;3.80;;;20.10;99.90;;;;;;5033227;28;20179;-65
2023/05/18 07:36:47;;;;;;;12.00;4.35;;;20.10;99.90;;;;;;5032940;28;20209;-65
2023/05/18 07:39:17;;;;;;;4.70;4.07;;;20.10;99.90;;;;;;5032764;28;20290;-65
2023/05/18 07:41:48;;;;;;;6.53;3.80;;;20.30;99.90;;;;;;5032971;28;20168;-65
2023/05/18 07:44:14;;;;;;;8.05;4.80;;;20.50;99.90;;;;;;5032978;28;20217;-65
2023/05/18 07:46:40;;;;;;;4.63;4.22;;;20.70;99.90;;;;;;5031510;28;20286;-65
2023/05/18 07:49:06;;;;;;;5.22;4.72;;;20.80;99.90;;;;;;5030342;28;20196;-64
2023/05/18 07:51:31;;;;;;;5.22;4.82;;;20.90;99.90;;;;;;5032650;28;20198;-65
2023/05/18 07:53:57;;;;;;;4.15;3.80;;;21.20;99.90;;;;;;5033053;28;20684;-65
2023/05/18 07:56:23;;;;;;;5.53;3.92;;;21.10;99.90;;;;;;5032433;28;20534;-64
2023/05/18 07:58:48;;;;;;;5.25;3.75;;;21.10;99.90;;;;;;5032589;28;20187;-65
2023/05/18 08:01:14;;;;;;;4.45;4.05;;;21.30;99.90;;;;;;5031985;28;20266;-64
2023/05/18 08:03:40;;;;;;;5.28;3.92;;;21.10;99.90;;;;;;5032668;28;20262;-64
2023/05/18 08:06:06;;;;;;;4.47;3.75;;;21.20;99.90;;;;;;5032287;28;20211;-65
2023/05/18 08:08:31;;;;;;;8.38;3.72;;;21.60;99.90;;;;;;5031312;28;20172;-65
2023/05/18 08:10:58;;;;;;;5.90;3.90;;;21.90;99.90;;;;;;5032522;28;20233;-65
2023/05/18 08:13:23;;;;;;;9.20;3.92;;;22.40;99.90;;;;;;5032536;28;20175;-65
2023/05/18 08:15:49;;;;;;;4.38;3.95;;;22.80;99.90;;;;;;5032568;28;20708;-64
2023/05/18 08:18:15;;;;;;;7.22;3.25;;;22.80;99.90;;;;;;5032541;28;20175;-65
2023/05/18 08:20:40;;;;;;;5.28;3.50;;;23.10;99.90;;;;;;5029273;28;20207;-65
2023/05/18 08:23:06;;;;;;;7.28;3.72;;;23.30;99.90;;;;;;5032239;28;20666;-64
2023/05/18 08:25:32;;;;;;;4.88;3.55;;;23.80;99.90;;;;;;5031788;28;20207;-65
2023/05/18 08:27:57;;;;;;;5.57;3.70;;;24.20;99.90;;;;;;5032397;28;20171;-65
2023/05/18 08:30:24;;;;;;;4.63;3.60;;;24.00;99.10;;;;;;5030398;28;20195;-65
2023/05/18 08:32:50;;;;;;;5.57;3.40;;;24.20;99.90;;;;;;5032041;28;20171;-65
2023/05/18 08:35:16;;;;;;;6.30;3.40;;;24.40;96.30;;;;;;5031769;28;20205;-65
2023/05/18 08:37:41;;;;;;;5.72;3.15;;;24.30;96.10;;;;;;5031997;28;20225;-65
2023/05/18 08:40:09;;;;;;;4.90;3.13;;;24.40;95.60;;;;;;5031226;28;20680;-65
2023/05/18 08:42:51;;;;;;;3.78;3.47;;;24.80;96.70;;;;;;5032063;28;20546;-65
2023/05/18 08:45:22;;;;;;;4.43;3.72;;;24.50;88.40;;;;;;5030181;28;20249;-65
2023/05/18 08:47:49;;;;;;;7.78;3.42;;;23.70;90.10;;;;;;5031862;28;20660;-65
2023/05/18 08:50:19;;;;;;;4.90;3.28;;;23.40;92.40;;;;;;5031418;28;20191;-65
2023/05/18 08:52:53;;;;;;;5.30;3.30;;;22.80;92.10;;;;;;5029739;28;20175;-65
2023/05/18 08:55:19;;;;;;;4.80;3.28;;;22.30;91.90;;;;;;5031573;28;20190;-65
2023/05/18 08:57:54;;;;;;;7.15;3.13;;;21.90;92.90;;;;;;5031774;28;20175;-65
2023/05/18 09:00:21;;;;;;;7.90;3.35;;;21.80;94.30;;;;;;5030473;28;20683;-65
2023/05/18 09:02:47;;;;;;;4.10;3.17;;;21.80;93.00;;;;;;5030221;28;20202;-65
2023/05/18 09:05:14;;;;;;;3.55;3.17;;;22.40;94.80;;;;;;5031152;28;20703;-65
2023/05/18 09:07:41;;;;;;;6.30;3.53;;;23.10;94.60;;;;;;5011996;28;20168;-64
2023/05/18 09:10:12;;;;;;;5.95;3.42;;;23.40;94.10;;;;;;5011240;28;20585;-64
2023/05/18 09:12:40;;;;;;;4.53;3.22;;;23.30;91.50;;;;;;5031084;28;20722;-65
2023/05/18 09:15:08;;;;;;;5.22;3.17;;;23.10;92.30;;;;;;5031109;28;20508;-64
2023/05/18 09:17:34;;;;;;;5.22;3.63;;;23.20;92.40;;;;;;5031330;28;20288;-64
2023/05/18 09:20:00;;;;;;;7.20;3.85;;;23.20;92.40;;;;;;5029963;28;20191;-65
2023/05/18 09:22:26;;;;;;;4.15;3.70;;;22.80;90.30;;;;;;5031483;28;20207;-65
2023/05/18 09:24:52;;;;;;;5.57;3.10;;;23.00;94.40;;;;;;5030718;28;20676;-65
2023/05/18 09:27:17;;;;;;;5.65;3.38;;;23.00;91.50;;;;;;5031139;28;20168;-64
2023/05/18 09:29:54;;;;;;;5.85;3.67;;;22.90;91.10;;;;;;5030819;28;20217;-66
2023/05/18 09:32:21;;;;;;;3.72;3.40;;;22.80;91.30;;;;;;5031223;28;20238;-64
2023/05/18 09:34:47;;;;;;;5.25;3.90;;;22.80;91.60;;;;;;5030950;28;20176;-65
2023/05/18 09:37:17;;;;;;;6.20;3.28;;;23.00;89.40;;;;;;5031064;28;20580;-65
2023/05/18 09:39:43;;;;;;;4.07;3.20;;;23.60;93.10;;;;;;5011231;28;20195;-65
2023/05/18 09:42:09;;;;;;;3.97;3.33;;;24.10;89.70;;;;;;5023619;28;20249;-65
2023/05/18 09:44:35;;;;;;;8.38;3.45;;;24.20;91.30;;;;;;5031077;28;20653;-64
2023/05/18 09:47:02;;;;;;;7.07;3.85;;;24.60;92.50;;;;;;5030824;28;20179;-65
2023/05/18 09:49:29;;;;;;;4.38;3.50;;;25.00;90.00;;;;;;5030746;28;20219;-65
2023/05/18 09:51:58;;;;;;;4.90;3.80;;;24.60;90.40;;;;;;5030918;28;20179;-64
2023/05/18 09:54:24;;;;;;;4.28;3.88;;;24.30;88.00;;;;;;5031082;28;20254;-66
2023/05/18 09:56:50;;;;;;;4.97;3.40;;;24.10;90.80;;;;;;5031081;28;20345;-65
2023/05/18 09:59:16;;;;;;;4.05;3.50;;;24.30;87.90;;;;;;5030618;28;20337;-65
2023/05/18 10:02:01;;;;;;;5.75;3.30;;;24.30;90.40;;;;;;5030904;28;20175;-64
2023/05/18 10:04:41;;;;;;;5.28;3.65;;;24.40;91.70;;;;;;5030977;28;20579;-65
2023/05/18 10:07:11;;;;;;;6.00;3.35;;;24.70;90.00;;;;;;5010385;28;20168;-65
2023/05/18 10:09:41;;;;;;;5.68;2.83;;;24.90;87.50;;;;;;5014961;28;20293;-65
2023/05/18 10:12:14;;;;;;;4.20;3.20;;;24.70;90.00;;;;;;5033291;28;20175;-65
2023/05/18 10:14:44;;;;;;;6.80;3.22;;;25.00;85.20;;;;;;5032677;28;20653;-64
2023/05/18 10:17:16;;;;;;;8.35;3.47;;;25.10;88.30;;;;;;5034627;28;20171;-65
2023/05/18 10:19:42;;;;;;;6.45;3.83;;;25.50;89.70;;;;;;5034201;28;20195;-65
2023/05/18 10:22:09;;;;;;;3.60;3.30;;;25.80;85.90;;;;;;5034560;28;20172;-65
2023/05/18 10:24:38;;;;;;;6.43;5.10;;;25.60;90.10;;;;;;5034339;28;20183;-65
2023/05/18 10:27:08;;;;;;;4.93;3.30;;;25.60;84.10;;;;;;5034244;28;20168;-65
2023/05/18 10:29:36;;;;;;;5.53;3.67;;;26.10;89.10;;;;;;5033954;28;20292;-64
2023/05/18 10:32:03;;;;;;;7.80;3.33;;;26.40;83.60;;;;;;5034101;28;20167;-65
2023/05/18 10:34:32;;;;;;;3.88;3.42;;;26.80;85.60;;;;;;5033744;28;20179;-65
2023/05/18 10:37:03;;;;;;;6.85;3.58;;;27.40;81.40;;;;;;5016907;28;20188;-65
2023/05/18 10:39:34;;;;;;;6.40;3.63;;;27.80;84.20;;;;;;5019524;28;20350;-65
2023/05/18 10:42:02;;;;;;;5.45;4.10;;;28.10;85.40;;;;;;5034153;28;20697;-65
2023/05/18 10:44:28;;;;;;;4.97;3.80;;;27.90;84.80;;;;;;5034211;28;20187;-65
2023/05/18 10:46:54;;;;;;;6.47;4.47;;;27.80;82.60;;;;;;5014393;28;20670;-65
2023/05/18 10:49:25;;;;;;;6.05;3.92;;;27.10;77.50;;;;;;5016733;28;20673;-65
2023/05/18 10:51:56;;;;;;;4.50;3.88;;;26.20;78.20;;;;;;5033649;28;20184;-64
2023/05/18 10:54:22;;;;;;;6.85;4.20;;;24.90;78.60;;;;;;5033951;28;20685;-65
2023/05/18 10:56:53;;;;;;;5.65;4.65;;;24.90;83.70;;;;;;5034098;28;20285;-65
2023/05/18 10:59:22;;;;;;;5.53;5.10;;;24.90;83.80;;;;;;5020878;28;20716;-65
2023/05/18 11:01:50;;;;;;;6.68;4.63;;;25.40;84.80;;;;;;5034037;28;20672;-65
2023/05/18 11:04:20;;;;;;;6.97;4.03;;;25.40;81.70;;;;;;5033424;28;20264;-65
2023/05/18 11:06:54;;;;;;;5.50;5.00;;;25.10;81.40;;;;;;5033718;28;20617;-65
2023/05/18 11:09:22;;;;;;;8.38;5.72;;;25.00;83.60;;;;;;5032967;28;20211;-65
2023/05/18 11:12:01;;;;;;;7.00;3.38;;;25.20;86.70;;;;;;5033985;28;20167;-65
2023/05/18 11:14:30;;;;;;;7.80;4.47;;;25.20;84.20;;;;;;5033524;28;20203;-65
2023/05/18 11:17:22;;;;;;;6.45;5.32;;;25.10;84.80;;;;;;5033447;28;20175;-65
2023/05/18 11:20:06;;;;;;;9.48;3.78;;;24.60;80.20;;;;;;5033075;28;20258;-65
2023/05/18 11:23:13;;;;;;;6.93;4.15;;;23.70;80.60;;;;;;5032810;28;20584;-65
2023/05/18 11:25:41;;;;;;;5.70;4.50;;;23.50;81.70;;;;;;5013792;28;20298;-65
2023/05/18 11:28:10;;;;;;;5.20;4.18;;;24.10;85.10;;;;;;5021919;28;20175;-65
2023/05/18 11:30:35;;;;;;;5.38;4.03;;;25.10;83.20;;;;;;5033009;28;20237;-65
2023/05/18 11:33:22;;;;;;;7.25;4.05;;;25.80;87.50;;;;;;5032958;28;20214;-65
2023/05/18 11:36:13;;;;;;;6.85;4.03;;;26.40;84.60;;;;;;5032299;28;20277;-65
2023/05/18 11:38:55;;;;;;;5.35;3.55;;;26.10;83.00;;;;;;5032971;28;20544;-65
2023/05/18 11:41:34;;;;;;;7.03;4.45;;;25.60;81.30;;;;;;5033289;28;20183;-65
2023/05/18 11:44:15;;;;;;;4.85;4.32;;;25.20;83.70;;;;;;5033659;28;20214;-65
2023/05/18 11:47:04;;;;;;;4.80;4.40;;;25.10;85.10;;;;;;5033196;28;20281;-65
2023/05/18 11:49:35;;;;;;;6.32;4.65;;;25.00;80.60;;;;;;5032410;28;20199;-65
2023/05/18 11:52:08;;;;;;;5.78;5.25;;;25.10;79.70;;;;;;5032415;28;20218;-65
2023/05/18 11:54:54;;;;;;;5.47;4.32;;;25.10;80.10;;;;;;5033112;28;20170;-65
2023/05/18 11:57:32;;;;;;;4.15;3.72;;;25.80;81.10;;;;;;5032428;28;20641;-65
2023/05/18 12:00:00;;;;;;;5.93;3.78;;;26.60;84.80;;;;;;5013054;28;20199;-65
2023/05/18 12:02:32;;;;;;;8.02;7.03;;;26.40;78.80;;;;;;5016280;28;20182;-64
2023/05/18 12:04:59;;;;;;;8.93;4.63;;;25.20;77.90;;;;;;5032143;28;20300;-65
2023/05/18 12:07:30;;;;;;;5.72;3.80;;;24.20;79.50;;;;;;5032518;28;20533;-66
2023/05/18 12:10:03;;;;;;;6.30;4.75;;;23.90;82.50;;;;;;5031882;28;20211;-65
2023/05/18 12:12:29;;;;;;;7.70;4.28;;;24.00;82.10;;;;;;5032560;28;20226;-65
2023/05/18 12:15:04;;;;;;;7.80;4.80;;;23.50;84.40;;;;;;5031438;28;20183;-65
2023/05/18 12:17:46;;;;;;;3.95;3.65;;;23.20;84.90;;;;;;5032247;28;20537;-66
2023/05/18 12:20:23;;;;;;;7.15;3.90;;;23.20;89.10;;;;;;5031617;28;20277;-65
2023/05/18 12:22:52;;;;;;;4.22;3.83;;;23.40;85.50;;;;;;5032266;28;20175;-65
2023/05/18 12:25:23;;;;;;;5.43;4.50;;;23.60;86.70;;;;;;5031553;28;20229;-65
2023/05/18 12:27:50;;;;;;;4.63;3.67;;;23.60;91.00;;;;;;5031721;28;20520;-65
2023/05/18 12:30:33;;;;;;;6.93;4.55;;;23.70;89.90;;;;;;5031681;28;20282;-65
2023/05/18 12:33:03;;;;;;;4.93;4.43;;;24.00;87.70;;;;;;5032011;28;20562;-65
2023/05/18 12:35:29;;;;;;;6.50;3.42;;;23.50;82.60;;;;;;5031228;28;20272;-65
2023/05/18 12:38:00;;;;;;;7.47;4.18;;;23.20;86.10;;;;;;5031634;28;20171;-65
2023/05/18 12:40:26;;;;;;;5.68;4.10;;;23.20;91.70;;;;;;5031530;28;20195;-65
2023/05/18 12:42:56;;;;;;;4.75;4.20;;;23.90;92.50;;;;;;5031396;28;20179;-64
2023/05/18 12:45:24;;;;;;;6.60;4.50;;;24.00;89.50;;;;;;5025997;28;20306;-64
2023/05/18 12:47:53;;;;;;;5.00;4.22;;;23.50;81.70;;;;;;5029942;28;20245;-65
2023/05/18 12:50:19;;;;;;;4.70;3.50;;;23.10;87.70;;;;;;5011594;28;20188;-64
2023/05/18 12:52:46;;;;;;;6.25;3.60;;;23.00;90.90;;;;;;5019616;28;20182;-65
2023/05/18 12:55:23;;;;;;;4.90;4.40;;;23.40;91.60;;;;;;5030810;28;20171;-65